createdAt,value
2023-05-06T00:02:11.151Z,9.73
2023-05-06T00:04:38.606Z,9.68
2023-05-06T00:07:05.756Z,9.61
2023-05-06T00:09:32.618Z,9.63
2023-05-06T00:11:59.557Z,9.67
2023-05-06T00:14:26.510Z,9.70
2023-05-06T00:16:53.336Z,9.68
2023-05-06T00:19:20.657Z,9.67
2023-05-06T00:21:47.537Z,9.66
2023-05-06T00:24:14.382Z,9.63
2023-05-06T00:26:41.334Z,9.60
2023-05-06T00:29:08.368Z,9.56
2023-05-06T00:31:35.257Z,9.55
2023-05-06T00:34:02.472Z,9.59
2023-05-06T00:36:29.629Z,9.62
2023-05-06T00:38:56.972Z,9.63
2023-05-06T00:41:23.927Z,9.63
2023-05-06T00:43:50.967Z,9.61
2023-05-06T00:46:18.283Z,9.56
2023-05-06T00:48:45.780Z,9.50
2023-05-06T00:51:12.642Z,9.42
2023-05-06T00:53:39.994Z,9.34
2023-05-06T00:56:07.025Z,9.31
2023-05-06T00:58:34.734Z,9.38
2023-05-06T01:01:02.516Z,9.42
2023-05-06T01:03:29.875Z,9.42
2023-05-06T01:06:03.098Z,9.40
2023-05-06T01:08:42.959Z,9.39
2023-05-06T01:11:15.604Z,9.35
2023-05-06T01:13:51.305Z,9.28
2023-05-06T01:16:19.705Z,9.20
2023-05-06T01:18:46.611Z,9.16
2023-05-06T01:21:14.377Z,9.20
2023-05-06T01:23:58.278Z,9.24
2023-05-06T01:26:25.521Z,9.24
2023-05-06T01:28:52.828Z,9.23
2023-05-06T01:31:22.772Z,9.23
2023-05-06T01:34:25.540Z,9.21
2023-05-06T01:37:04.775Z,9.22
2023-05-06T01:39:31.590Z,9.24
2023-05-06T01:41:59.477Z,9.24
2023-05-06T01:44:27.721Z,9.25
2023-05-06T01:46:54.635Z,9.22
2023-05-06T01:49:21.543Z,9.18
2023-05-06T01:51:53.061Z,9.11
2023-05-06T01:54:20.041Z,9.06
2023-05-06T01:56:46.865Z,9.10
2023-05-06T01:59:15.171Z,9.13
2023-05-06T02:01:42.129Z,9.09
2023-05-06T02:04:09.098Z,9.06
2023-05-06T02:06:36.260Z,9.03
2023-05-06T02:09:03.259Z,8.97
2023-05-06T02:11:31.902Z,8.90
2023-05-06T02:14:03.303Z,8.87
2023-05-06T02:16:32.824Z,8.84
2023-05-06T02:19:00.057Z,8.76
2023-05-06T02:21:28.019Z,8.67
2023-05-06T02:23:54.884Z,8.62
2023-05-06T02:26:21.802Z,8.63
2023-05-06T02:28:48.859Z,8.64
2023-05-06T02:31:16.360Z,8.63
2023-05-06T02:33:44.594Z,8.63
2023-05-06T02:36:11.541Z,8.62
2023-05-06T02:38:38.492Z,8.60
2023-05-06T02:41:05.517Z,8.60
2023-05-06T02:43:32.366Z,8.61
2023-05-06T02:45:59.147Z,8.57
2023-05-06T02:48:26.047Z,8.53
2023-05-06T02:50:52.998Z,8.48
2023-05-06T02:53:19.837Z,8.43
2023-05-06T02:55:46.754Z,8.44
2023-05-06T02:58:14.546Z,8.45
2023-05-06T03:00:41.408Z,8.42
2023-05-06T03:03:09.166Z,8.36
2023-05-06T03:05:36.099Z,8.35
2023-05-06T03:08:03.203Z,8.32
2023-05-06T03:10:31.122Z,8.30
2023-05-06T03:12:58.486Z,8.29
2023-05-06T03:15:25.521Z,8.34
2023-05-06T03:17:53.960Z,8.42
2023-05-06T03:20:21.608Z,8.46
2023-05-06T03:22:51.726Z,8.46
2023-05-06T03:25:19.133Z,8.43
2023-05-06T03:27:46.255Z,8.38
2023-05-06T03:30:17.532Z,8.35
2023-05-06T03:32:45.030Z,8.32
2023-05-06T03:35:14.009Z,8.29
2023-05-06T03:37:41.927Z,8.32
2023-05-06T03:40:09.730Z,8.33
2023-05-06T03:42:36.893Z,8.32
2023-05-06T03:45:05.197Z,8.30
2023-05-06T03:47:32.558Z,8.25
2023-05-06T03:50:00.648Z,8.23
2023-05-06T03:52:27.537Z,8.22
2023-05-06T03:54:54.607Z,8.22
2023-05-06T03:57:21.733Z,8.28
2023-05-06T03:59:48.872Z,8.36
2023-05-06T04:02:16.380Z,8.41
2023-05-06T04:04:45.023Z,8.46
2023-05-06T04:07:12.040Z,8.53
2023-05-06T04:09:38.885Z,8.56
2023-05-06T04:12:07.399Z,8.54
2023-05-06T04:14:34.957Z,8.51
2023-05-06T04:17:02.517Z,8.48
2023-05-06T04:19:29.756Z,8.49
2023-05-06T04:21:56.701Z,8.47
2023-05-06T04:24:23.561Z,8.48
2023-05-06T04:26:50.660Z,8.52
2023-05-06T04:29:19.560Z,8.53
2023-05-06T04:31:56.093Z,8.53
2023-05-06T04:34:25.208Z,8.54
2023-05-06T04:36:54.283Z,8.57
2023-05-06T04:39:39.383Z,8.60
2023-05-06T04:42:06.476Z,8.62
2023-05-06T04:44:39.150Z,8.63
2023-05-06T04:47:08.453Z,8.65
2023-05-06T04:49:35.811Z,8.67
2023-05-06T04:52:03.701Z,8.70
2023-05-06T04:54:31.317Z,8.74
2023-05-06T04:56:58.294Z,8.79
2023-05-06T04:59:26.371Z,8.84
2023-05-06T05:01:53.968Z,8.91
2023-05-06T05:04:20.965Z,8.97
2023-05-06T05:06:47.826Z,9.01
2023-05-06T05:09:15.312Z,9.06
2023-05-06T05:11:43.642Z,9.10
2023-05-06T05:14:10.602Z,9.12
2023-05-06T05:16:37.919Z,9.14
2023-05-06T05:19:08.324Z,9.16
2023-05-06T05:21:36.606Z,9.17
2023-05-06T05:24:04.419Z,9.23
2023-05-06T05:26:31.772Z,9.30
2023-05-06T05:28:59.227Z,9.38
2023-05-06T05:31:26.219Z,9.47
2023-05-06T05:33:53.163Z,9.57
2023-05-06T05:36:21.826Z,9.65
2023-05-06T05:38:50.198Z,9.71
2023-05-06T05:41:17.714Z,9.74
2023-05-06T05:43:44.811Z,9.76
2023-05-06T05:46:11.868Z,9.81
2023-05-06T05:48:40.170Z,9.89
2023-05-06T05:51:07.501Z,9.97
2023-05-06T05:53:34.722Z,10.01
2023-05-06T05:56:03.117Z,10.06
2023-05-06T05:58:30.153Z,10.14
2023-05-06T06:00:58.737Z,10.20
2023-05-06T06:03:25.919Z,10.23
2023-05-06T06:05:55.390Z,10.21
2023-05-06T06:08:23.768Z,10.21
2023-05-06T06:10:51.629Z,10.25
2023-05-06T06:13:21.932Z,10.30
2023-05-06T06:15:49.280Z,10.35
2023-05-06T06:18:16.291Z,10.38
2023-05-06T06:20:43.417Z,10.42
2023-05-06T06:23:11.225Z,10.47
2023-05-06T06:25:38.119Z,10.51
2023-05-06T06:28:05.531Z,10.53
2023-05-06T06:30:33.035Z,10.53
2023-05-06T06:33:01.511Z,10.57
2023-05-06T06:35:29.187Z,10.63
2023-05-06T06:51:13.486Z,10.96
2023-05-06T06:53:41.514Z,11.44
2023-05-06T06:56:14.437Z,11.50
2023-05-06T06:58:41.455Z,11.53
2023-05-06T07:01:08.422Z,11.56
2023-05-06T07:03:35.601Z,11.55
2023-05-06T07:06:02.448Z,11.54
2023-05-06T07:08:30.082Z,11.54
2023-05-06T07:10:57.027Z,11.53
2023-05-06T07:13:23.904Z,11.55
2023-05-06T07:15:50.969Z,11.52
2023-05-06T07:18:17.920Z,11.50
2023-05-06T07:20:44.960Z,11.50
2023-05-06T07:23:11.903Z,11.49
2023-05-06T07:25:38.957Z,11.48
2023-05-06T07:28:05.902Z,11.50
2023-05-06T07:30:32.705Z,11.55
2023-05-06T07:32:59.733Z,11.61
2023-05-06T07:35:26.636Z,11.65
2023-05-06T07:37:54.212Z,11.68
2023-05-06T07:40:21.346Z,11.76
2023-05-06T07:42:48.188Z,11.81
2023-05-06T07:45:15.494Z,11.85
2023-05-06T07:47:42.610Z,11.87
2023-05-06T07:50:10.714Z,11.89
2023-05-06T07:52:37.712Z,11.91
2023-05-06T07:55:05.119Z,11.93
2023-05-06T07:57:32.121Z,11.95
2023-05-06T07:59:59.267Z,11.98
2023-05-06T08:02:27.513Z,12.00
2023-05-06T08:04:54.603Z,12.01
2023-05-06T08:07:21.741Z,12.04
2023-05-06T08:09:48.794Z,12.09
2023-05-06T08:12:16.247Z,12.16
2023-05-06T08:14:43.103Z,12.22
2023-05-06T08:17:10.035Z,12.28
2023-05-06T08:19:36.819Z,12.29
2023-05-06T08:22:03.648Z,12.28
2023-05-06T08:24:30.487Z,12.29
2023-05-06T08:26:57.373Z,12.34
2023-05-06T08:29:24.360Z,12.40
2023-05-06T08:31:51.438Z,12.44
2023-05-06T08:34:20.807Z,12.46
2023-05-06T08:36:48.624Z,12.47
2023-05-06T08:39:15.665Z,12.53
2023-05-06T08:41:42.685Z,12.61
2023-05-06T08:44:09.620Z,12.69
2023-05-06T08:46:36.457Z,12.73
2023-05-06T08:49:03.434Z,12.76
2023-05-06T08:51:31.968Z,12.78
2023-05-06T08:54:05.025Z,12.77
2023-05-06T08:56:33.416Z,12.76
2023-05-06T08:59:01.405Z,12.80
2023-05-06T09:01:28.938Z,12.81
2023-05-06T09:03:57.075Z,12.85
2023-05-06T09:06:25.239Z,12.93
2023-05-06T09:08:52.300Z,13.00
2023-05-06T09:11:39.004Z,13.06
2023-05-06T09:14:13.061Z,13.14
2023-05-06T09:16:42.100Z,13.17
2023-05-06T09:19:09.051Z,13.21
2023-05-06T09:21:37.152Z,13.25
2023-05-06T09:24:05.092Z,13.28
2023-05-06T09:26:32.679Z,13.30
2023-05-06T09:28:59.768Z,13.31
2023-05-06T09:31:27.403Z,13.33
2023-05-06T09:33:55.222Z,13.34
2023-05-06T09:36:22.598Z,13.36
2023-05-06T09:38:49.805Z,13.40
2023-05-06T09:41:20.917Z,13.43
2023-05-06T09:43:49.409Z,13.49
2023-05-06T09:46:17.037Z,13.57
2023-05-06T09:48:44.990Z,13.69
2023-05-06T09:51:11.834Z,13.74
2023-05-06T09:53:38.796Z,13.72
2023-05-06T09:56:06.416Z,13.66
2023-05-06T09:58:34.103Z,13.66
2023-05-06T10:01:01.766Z,13.71
2023-05-06T10:03:28.664Z,13.78
2023-05-06T10:05:57.362Z,13.84
2023-05-06T10:08:24.784Z,13.85
2023-05-06T10:10:51.843Z,13.81
2023-05-06T10:13:20.178Z,13.74
2023-05-06T10:15:48.323Z,13.73
2023-05-06T10:18:19.853Z,13.76
2023-05-06T10:20:47.880Z,13.84
2023-05-06T10:23:22.608Z,13.89
2023-05-06T10:25:52.218Z,13.95
2023-05-06T10:28:21.350Z,13.98
2023-05-06T10:30:57.368Z,13.99
2023-05-06T10:33:24.308Z,14.01
2023-05-06T10:36:03.417Z,14.05
2023-05-06T10:38:33.875Z,14.09
2023-05-06T10:41:00.928Z,14.10
2023-05-06T10:43:29.771Z,14.09
2023-05-06T10:46:18.084Z,14.07
2023-05-06T10:49:06.622Z,14.10
2023-05-06T10:51:34.588Z,14.18
2023-05-06T10:54:02.739Z,14.25
2023-05-06T10:56:31.376Z,14.37
2023-05-06T10:59:26.538Z,14.51
2023-05-06T11:02:02.864Z,14.63
2023-05-06T11:04:32.672Z,14.70
2023-05-06T11:07:16.205Z,14.72
2023-05-06T11:10:05.306Z,14.77
2023-05-06T11:12:55.978Z,14.85
2023-05-06T11:15:38.294Z,14.88
2023-05-06T11:18:24.521Z,14.91
2023-05-06T11:21:15.742Z,14.95
2023-05-06T11:23:42.831Z,14.97
2023-05-06T11:26:10.551Z,14.99
2023-05-06T11:28:37.611Z,15.04
2023-05-06T11:31:04.659Z,15.12
2023-05-06T11:33:35.946Z,15.12
2023-05-06T11:36:03.674Z,15.13
2023-05-06T11:38:41.259Z,15.18
2023-05-06T11:41:08.130Z,15.17
2023-05-06T11:43:34.930Z,15.18
2023-05-06T11:46:01.800Z,15.23
2023-05-06T11:48:28.834Z,15.33
2023-05-06T11:50:58.648Z,15.49
2023-05-06T11:53:25.563Z,15.60
2023-05-06T11:55:53.198Z,15.68
2023-05-06T11:58:30.601Z,15.71
2023-05-06T12:01:02.818Z,15.74
2023-05-06T12:03:31.677Z,15.80
2023-05-06T12:05:58.772Z,15.88
2023-05-06T12:08:28.466Z,15.99
2023-05-06T12:10:56.992Z,16.17
2023-05-06T12:13:24.044Z,16.33
2023-05-06T12:15:51.283Z,16.42
2023-05-06T12:18:18.330Z,16.40
2023-05-06T12:20:45.750Z,16.37
2023-05-06T12:23:13.535Z,16.40
2023-05-06T12:25:40.884Z,16.44
2023-05-06T12:28:18.056Z,16.48
2023-05-06T12:30:45.616Z,16.58
2023-05-06T12:33:12.634Z,16.66
2023-05-06T12:35:39.944Z,16.70
2023-05-06T12:38:14.095Z,16.77
2023-05-06T12:40:41.751Z,16.85
2023-05-06T12:43:09.468Z,16.90
2023-05-06T12:45:38.790Z,16.96
2023-05-06T12:48:06.812Z,17.05
2023-05-06T12:50:39.362Z,17.13
2023-05-06T12:53:07.280Z,17.27
2023-05-06T12:55:34.746Z,17.41
2023-05-06T12:58:01.646Z,17.41
2023-05-06T13:00:28.666Z,17.34
2023-05-06T13:02:55.716Z,17.37
2023-05-06T13:05:23.212Z,17.50
2023-05-06T13:07:51.304Z,17.63
2023-05-06T13:10:18.153Z,17.78
2023-05-06T13:12:45.159Z,17.88
2023-05-06T13:15:11.978Z,17.88
2023-05-06T13:17:39.029Z,17.82
2023-05-06T13:20:07.418Z,17.83
2023-05-06T13:22:46.955Z,17.83
2023-05-06T13:25:20.573Z,17.80
2023-05-06T13:27:47.468Z,17.73
2023-05-06T13:30:14.502Z,17.68
2023-05-06T13:32:41.392Z,17.73
2023-05-06T13:35:09.150Z,17.80
2023-05-06T13:37:36.096Z,17.85
2023-05-06T13:40:03.506Z,17.99
2023-05-06T13:42:30.524Z,18.10
2023-05-06T13:44:57.388Z,18.30
2023-05-06T13:47:24.437Z,19.23
2023-05-06T13:49:51.511Z,20.87
2023-05-06T13:52:18.299Z,22.72
2023-05-06T13:54:46.410Z,24.22
2023-05-06T13:57:13.180Z,25.50
2023-05-06T13:59:39.967Z,26.62
2023-05-06T14:02:09.435Z,27.49
2023-05-06T14:04:36.822Z,28.57
2023-05-06T14:07:03.740Z,29.48
2023-05-06T14:09:31.169Z,29.98
2023-05-06T14:11:58.009Z,30.42
2023-05-06T14:14:24.952Z,30.94
2023-05-06T14:16:54.659Z,31.22
2023-05-06T14:19:22.139Z,31.07
2023-05-06T14:21:49.172Z,30.95
2023-05-06T14:24:16.071Z,31.04
2023-05-06T14:26:42.924Z,31.66
2023-05-06T14:29:09.814Z,32.33
2023-05-06T14:31:37.235Z,32.88
2023-05-06T14:34:04.305Z,33.30
2023-05-06T14:36:31.409Z,33.22
2023-05-06T14:38:58.413Z,32.82
2023-05-06T14:41:25.351Z,32.58
2023-05-06T14:43:52.293Z,32.54
2023-05-06T14:46:19.284Z,32.68
2023-05-06T14:48:46.228Z,32.75
2023-05-06T14:51:13.229Z,32.81
2023-05-06T14:53:40.157Z,32.93
2023-05-06T14:56:10.440Z,33.15
2023-05-06T14:58:37.368Z,33.52
2023-05-06T15:01:04.467Z,33.82
2023-05-06T15:03:31.361Z,33.70
2023-05-06T15:05:58.278Z,33.37
2023-05-06T15:08:26.474Z,32.97
2023-05-06T15:10:53.429Z,32.63
2023-05-06T15:13:20.305Z,32.04
2023-05-06T15:15:47.190Z,31.54
2023-05-06T15:18:14.149Z,31.38
2023-05-06T15:20:41.098Z,31.66
2023-05-06T15:23:08.029Z,32.09
2023-05-06T15:25:36.574Z,32.43
2023-05-06T15:28:05.089Z,32.54
2023-05-06T15:30:32.088Z,32.26
2023-05-06T15:32:59.080Z,32.00
2023-05-06T15:35:26.098Z,32.06
2023-05-06T15:37:55.573Z,32.17
2023-05-06T15:40:25.564Z,32.19
2023-05-06T15:42:52.724Z,32.34
2023-05-06T15:45:19.866Z,32.51
2023-05-06T15:47:48.420Z,32.40
2023-05-06T15:50:25.305Z,32.12
2023-05-06T15:52:59.349Z,31.80
2023-05-06T15:55:26.604Z,31.53
2023-05-06T15:57:54.903Z,31.45
2023-05-06T16:00:22.159Z,31.22
2023-05-06T16:02:49.272Z,30.95
2023-05-06T16:05:16.522Z,30.72
2023-05-06T16:07:43.785Z,30.30
2023-05-06T16:10:10.831Z,29.76
2023-05-06T16:12:37.921Z,29.45
2023-05-06T16:15:05.171Z,29.35
2023-05-06T16:17:33.078Z,29.18
2023-05-06T16:19:59.919Z,28.88
2023-05-06T16:22:26.784Z,28.51
2023-05-06T16:24:53.609Z,28.05
2023-05-06T16:27:21.222Z,27.28
2023-05-06T16:29:48.302Z,26.42
2023-05-06T16:32:15.179Z,25.67
2023-05-06T16:34:42.024Z,24.97
2023-05-06T16:37:09.077Z,24.23
2023-05-06T16:39:36.062Z,23.47
2023-05-06T16:42:03.214Z,22.71
2023-05-06T16:44:30.215Z,21.97
2023-05-06T16:46:57.027Z,21.24
2023-05-06T16:49:27.799Z,20.57
2023-05-06T16:51:54.796Z,19.98
2023-05-06T16:54:21.599Z,19.54
2023-05-06T16:56:52.458Z,19.19
2023-05-06T16:59:21.955Z,18.82
2023-05-06T17:01:50.166Z,18.44
2023-05-06T17:04:17.209Z,18.13
2023-05-06T17:06:44.407Z,17.87
2023-05-06T17:09:11.352Z,17.63
2023-05-06T17:11:38.290Z,17.42
2023-05-06T17:14:05.121Z,17.28
2023-05-06T17:16:32.075Z,17.17
2023-05-06T17:18:59.033Z,17.04
2023-05-06T17:21:27.110Z,16.93
2023-05-06T17:23:54.580Z,16.80
2023-05-06T17:26:22.021Z,16.67
2023-05-06T17:28:49.092Z,16.56
2023-05-06T17:31:16.231Z,16.44
2023-05-06T17:33:44.687Z,16.31
2023-05-06T17:36:12.988Z,16.15
2023-05-06T17:38:40.039Z,16.00
2023-05-06T17:41:06.971Z,15.84
2023-05-06T17:43:34.319Z,15.69
2023-05-06T17:46:01.542Z,15.56
2023-05-06T17:48:28.635Z,15.43
2023-05-06T17:51:01.206Z,15.32
2023-05-06T17:53:28.854Z,15.21
2023-05-06T17:55:56.207Z,15.14
2023-05-06T17:58:23.419Z,15.06
2023-05-06T18:00:50.320Z,14.97
2023-05-06T18:03:17.328Z,14.88
2023-05-06T18:05:44.409Z,14.79
2023-05-06T18:08:11.216Z,14.68
2023-05-06T18:10:39.024Z,14.57
2023-05-06T18:13:07.317Z,14.46
2023-05-06T18:15:34.133Z,14.35
2023-05-06T18:18:01.289Z,14.24
2023-05-06T18:20:28.636Z,14.13
2023-05-06T18:22:56.333Z,14.03
2023-05-06T18:25:23.238Z,13.94
2023-05-06T18:27:50.088Z,13.86
2023-05-06T18:30:16.998Z,13.79
2023-05-06T18:32:43.928Z,13.73
2023-05-06T18:35:11.276Z,13.70
2023-05-06T18:37:38.795Z,13.68
2023-05-06T18:40:09.080Z,13.62
2023-05-06T18:42:36.308Z,13.56
2023-05-06T18:45:04.995Z,13.49
2023-05-06T18:47:33.104Z,13.44
2023-05-06T18:50:00.872Z,13.38
2023-05-06T18:52:27.676Z,13.34
2023-05-06T18:54:54.536Z,13.29
2023-05-06T19:08:55.719Z,13.32
2023-05-06T19:11:22.659Z,13.66
2023-05-06T19:13:50.179Z,13.62
2023-05-06T19:16:17.098Z,13.56
2023-05-06T19:18:44.205Z,13.49
2023-05-06T19:21:11.959Z,13.43
2023-05-06T19:23:39.027Z,13.39
2023-05-06T19:26:06.802Z,13.34
2023-05-06T19:28:34.460Z,13.29
2023-05-06T19:31:01.744Z,13.19
2023-05-06T19:33:28.869Z,13.15
2023-05-06T19:35:55.793Z,13.12
2023-05-06T19:38:22.708Z,13.08
2023-05-06T19:40:49.692Z,13.02
2023-05-06T19:43:16.837Z,12.97
2023-05-06T19:45:43.886Z,12.93
2023-05-06T19:48:10.940Z,12.90
2023-05-06T19:50:37.799Z,12.87
2023-05-06T19:53:04.641Z,12.83
2023-05-06T19:55:31.771Z,12.79
2023-05-06T19:57:58.836Z,12.77
2023-05-06T20:00:28.243Z,12.71
2023-05-06T20:02:59.901Z,12.63
2023-05-06T20:05:30.943Z,12.58
2023-05-06T20:08:01.261Z,12.56
2023-05-06T20:10:28.597Z,12.57
2023-05-06T20:12:57.337Z,12.57
2023-05-06T20:15:25.276Z,12.56
2023-05-06T20:17:52.311Z,12.53
2023-05-06T20:20:19.568Z,12.49
2023-05-06T20:22:46.608Z,12.43
2023-05-06T20:25:16.321Z,12.40
2023-05-06T20:27:43.983Z,12.38
2023-05-06T20:30:12.438Z,12.35
2023-05-06T20:32:39.737Z,12.34
2023-05-06T20:35:07.381Z,12.34
2023-05-06T20:37:35.374Z,12.32
2023-05-06T20:40:04.820Z,12.30
2023-05-06T20:42:31.981Z,12.29
2023-05-06T20:44:58.942Z,12.28
2023-05-06T20:47:26.644Z,12.27
2023-05-06T20:49:53.857Z,12.24
2023-05-06T20:52:21.901Z,12.21
2023-05-06T20:54:48.953Z,12.17
2023-05-06T20:57:17.402Z,12.11
2023-05-06T20:59:44.508Z,12.05
2023-05-06T21:02:11.567Z,12.03
2023-05-06T21:04:38.727Z,12.02
2023-05-06T21:07:05.857Z,11.99
2023-05-06T21:09:32.818Z,11.96
2023-05-06T21:11:59.800Z,11.92
2023-05-06T21:14:26.976Z,11.89
2023-05-06T21:16:53.945Z,11.86
2023-05-06T21:19:21.097Z,11.85
2023-05-06T21:21:48.481Z,11.84
2023-05-06T21:24:15.748Z,11.83
2023-05-06T21:26:42.746Z,11.81
2023-05-06T21:29:09.599Z,11.79
2023-05-06T21:31:36.667Z,11.77
2023-05-06T21:34:04.382Z,11.74
2023-05-06T21:36:31.383Z,11.70
2023-05-06T21:39:12.193Z,11.68
2023-05-06T21:41:39.423Z,11.68
2023-05-06T21:44:07.250Z,11.65
2023-05-06T21:46:34.670Z,11.62
2023-05-06T21:49:01.657Z,11.59
2023-05-06T21:51:29.245Z,11.57
2023-05-06T21:53:56.163Z,11.57
2023-05-06T21:56:23.041Z,11.54
2023-05-06T21:58:51.291Z,11.52
2023-05-06T22:01:18.379Z,11.51
2023-05-06T22:03:46.268Z,11.52
2023-05-06T22:06:13.444Z,11.52
2023-05-06T22:08:41.126Z,11.50
2023-05-06T22:11:08.055Z,11.49
2023-05-06T22:13:35.233Z,11.49
2023-05-06T22:16:02.174Z,11.48
2023-05-06T22:18:30.163Z,11.47
2023-05-06T22:20:57.983Z,11.44
2023-05-06T22:23:25.692Z,11.42
2023-05-06T22:25:52.518Z,11.41
2023-05-06T22:28:19.971Z,11.39
2023-05-06T22:30:46.884Z,11.35
2023-05-06T22:33:13.743Z,11.33
2023-05-06T22:35:40.796Z,11.31
2023-05-06T22:38:08.259Z,11.29
2023-05-06T22:40:35.297Z,11.28
2023-05-06T22:43:02.244Z,11.26
2023-05-06T22:45:29.144Z,11.26
2023-05-06T22:47:56.200Z,11.26
2023-05-06T22:50:23.174Z,11.23
2023-05-06T22:52:50.130Z,11.20
2023-05-06T22:55:17.049Z,11.18
2023-05-06T22:57:44.423Z,11.15
2023-05-06T23:00:12.879Z,11.12
2023-05-06T23:02:39.981Z,11.10
2023-05-06T23:05:07.509Z,11.08
2023-05-06T23:07:34.464Z,11.08
2023-05-06T23:10:01.647Z,11.09
2023-05-06T23:12:32.396Z,11.08
2023-05-06T23:15:00.418Z,11.08
2023-05-06T23:17:27.369Z,11.08
2023-05-06T23:19:54.304Z,11.08
2023-05-06T23:22:21.369Z,11.07
2023-05-06T23:24:48.400Z,11.07
2023-05-06T23:27:15.361Z,11.07
2023-05-06T23:29:42.205Z,11.08
2023-05-06T23:32:09.027Z,11.08
2023-05-06T23:34:35.829Z,11.05
2023-05-06T23:37:02.656Z,11.03
2023-05-06T23:39:29.569Z,11.01
2023-05-06T23:41:56.520Z,11.00
2023-05-06T23:44:23.563Z,10.99
2023-05-06T23:46:50.571Z,10.97
2023-05-06T23:49:17.633Z,10.94
2023-05-06T23:51:44.598Z,10.92
2023-05-06T23:54:11.552Z,10.91
2023-05-06T23:56:38.401Z,10.90
2023-05-06T23:59:05.645Z,10.88
